sensor_id;sensor_type;location;lat;lon;timestamp;pressure;altitude;pressure_sealevel;temperature;humidity
43745;BME280;29359;53.048;8.732;2023-07-13T00:00:24;101336.16;;;15.70;88.48
43745;BME280;29359;53.048;8.732;2023-07-13T00:02:27;101335.28;;;15.70;87.91
43745;BME280;29359;53.048;8.732;2023-07-13T00:04:30;101337.94;;;15.70;86.32
43745;BME280;29359;53.048;8.732;2023-07-13T00:06:34;101336.09;;;15.72;84.61
43745;BME280;29359;53.048;8.732;2023-07-13T00:08:37;101344.06;;;15.72;83.41
43745;BME280;29359;53.048;8.732;2023-07-13T00:10:41;101335.16;;;15.73;82.47
43745;BME280;29359;53.048;8.732;2023-07-13T00:12:44;101337.88;;;15.72;82.43
43745;BME280;29359;53.048;8.732;2023-07-13T00:14:47;101343.25;;;15.70;82.62
43745;BME280;29359;53.048;8.732;2023-07-13T00:16:52;101349.53;;;15.69;83.42
43745;BME280;29359;53.048;8.732;2023-07-13T00:18:55;101344.38;;;15.64;83.99
43745;BME280;29359;53.048;8.732;2023-07-13T00:20:58;101348.91;;;15.62;84.15
43745;BME280;29359;53.048;8.732;2023-07-13T00:23:06;101348.13;;;15.59;84.45
43745;BME280;29359;53.048;8.732;2023-07-13T00:25:10;101351.72;;;15.58;83.92
43745;BME280;29359;53.048;8.732;2023-07-13T00:27:16;101358.00;;;15.55;84.94
43745;BME280;29359;53.048;8.732;2023-07-13T00:29:19;101362.59;;;15.52;84.19
43745;BME280;29359;53.048;8.732;2023-07-13T00:31:22;101361.66;;;15.53;82.94
43745;BME280;29359;53.048;8.732;2023-07-13T00:33:27;101354.53;;;15.53;81.95
43745;BME280;29359;53.048;8.732;2023-07-13T00:35:30;101365.19;;;15.53;81.06
43745;BME280;29359;53.048;8.732;2023-07-13T00:37:34;101370.56;;;15.52;81.17
43745;BME280;29359;53.048;8.732;2023-07-13T00:39:38;101360.91;;;15.49;80.97
43745;BME280;29359;53.048;8.732;2023-07-13T00:41:41;101361.03;;;15.46;81.71
43745;BME280;29359;53.048;8.732;2023-07-13T00:43:45;101370.88;;;15.44;82.04
43745;BME280;29359;53.048;8.732;2023-07-13T00:46:22;101376.31;;;15.41;82.13
43745;BME280;29359;53.048;8.732;2023-07-13T00:48:29;101369.41;;;15.37;81.42
43745;BME280;29359;53.048;8.732;2023-07-13T00:50:33;101368.53;;;15.36;81.39
43745;BME280;29359;53.048;8.732;2023-07-13T00:52:38;101372.97;;;15.36;81.30
43745;BME280;29359;53.048;8.732;2023-07-13T00:54:45;101361.53;;;15.34;80.60
43745;BME280;29359;53.048;8.732;2023-07-13T00:56:50;101364.19;;;15.34;81.37
43745;BME280;29359;53.048;8.732;2023-07-13T00:58:55;101360.72;;;15.32;80.52
43745;BME280;29359;53.048;8.732;2023-07-13T01:00:59;101370.44;;;15.33;80.15
43745;BME280;29359;53.048;8.732;2023-07-13T01:03:02;101363.38;;;15.32;79.74
43745;BME280;29359;53.048;8.732;2023-07-13T01:05:10;101369.56;;;15.32;79.76
43745;BME280;29359;53.048;8.732;2023-07-13T01:07:14;101364.44;;;15.28;80.15
43745;BME280;29359;53.048;8.732;2023-07-13T01:09:17;101368.03;;;15.27;80.12
43745;BME280;29359;53.048;8.732;2023-07-13T01:11:21;101369.88;;;15.25;81.89
43745;BME280;29359;53.048;8.732;2023-07-13T01:13:24;101374.44;;;15.21;83.23
43745;BME280;29359;53.048;8.732;2023-07-13T01:15:38;101360.34;;;15.19;83.21
43745;BME280;29359;53.048;8.732;2023-07-13T01:17:41;101370.16;;;15.17;82.39
43745;BME280;29359;53.048;8.732;2023-07-13T01:19:45;101362.16;;;15.17;81.48
43745;BME280;29359;53.048;8.732;2023-07-13T01:21:51;101358.63;;;15.18;81.75
43745;BME280;29359;53.048;8.732;2023-07-13T01:23:55;101361.31;;;15.17;82.02
43745;BME280;29359;53.048;8.732;2023-07-13T01:25:58;101348.00;;;15.17;82.90
43745;BME280;29359;53.048;8.732;2023-07-13T01:28:02;101350.66;;;15.17;82.61
43745;BME280;29359;53.048;8.732;2023-07-13T01:30:05;101352.47;;;15.16;82.26
43745;BME280;29359;53.048;8.732;2023-07-13T01:32:11;101347.13;;;15.16;82.26
43745;BME280;29359;53.048;8.732;2023-07-13T01:34:14;101349.00;;;15.14;82.46
43745;BME280;29359;53.048;8.732;2023-07-13T01:36:17;101345.53;;;15.12;81.81
43745;BME280;29359;53.048;8.732;2023-07-13T01:38:24;101355.28;;;15.12;81.22
43745;BME280;29359;53.048;8.732;2023-07-13T01:40:27;101351.78;;;15.11;80.15
43745;BME280;29359;53.048;8.732;2023-07-13T01:42:31;101355.28;;;15.12;79.98
43745;BME280;29359;53.048;8.732;2023-07-13T01:44:34;101358.88;;;15.11;79.82
43745;BME280;29359;53.048;8.732;2023-07-13T01:46:37;101350.03;;;15.10;80.55
43745;BME280;29359;53.048;8.732;2023-07-13T01:48:39;101349.16;;;15.09;80.72
43745;BME280;29359;53.048;8.732;2023-07-13T01:50:42;101357.22;;;15.08;81.43
43745;BME280;29359;53.048;8.732;2023-07-13T01:52:45;101353.75;;;15.06;82.31
43745;BME280;29359;53.048;8.732;2023-07-13T01:54:50;101360.03;;;15.03;83.94
43745;BME280;29359;53.048;8.732;2023-07-13T01:56:52;101360.28;;;14.97;85.05
43745;BME280;29359;53.048;8.732;2023-07-13T01:58:54;101357.69;;;14.96;85.37
43745;BME280;29359;53.048;8.732;2023-07-13T02:00:58;101357.81;;;14.93;86.09
43745;BME280;29359;53.048;8.732;2023-07-13T02:03:01;101363.25;;;14.90;86.08
43745;BME280;29359;53.048;8.732;2023-07-13T02:05:05;101363.28;;;14.88;87.48
43745;BME280;29359;53.048;8.732;2023-07-13T02:07:08;101366.88;;;14.87;88.36
43745;BME280;29359;53.048;8.732;2023-07-13T02:09:10;101367.63;;;14.91;88.45
43745;BME280;29359;53.048;8.732;2023-07-13T02:11:14;101363.19;;;14.91;87.15
43745;BME280;29359;53.048;8.732;2023-07-13T02:13:17;101357.84;;;14.91;86.75
43745;BME280;29359;53.048;8.732;2023-07-13T02:15:19;101354.34;;;14.91;86.53
43745;BME280;29359;53.048;8.732;2023-07-13T02:17:22;101362.25;;;14.92;86.81
43745;BME280;29359;53.048;8.732;2023-07-13T02:19:25;101356.88;;;14.94;87.64
43745;BME280;29359;53.048;8.732;2023-07-13T02:21:28;101363.94;;;14.95;89.02
43745;BME280;29359;53.048;8.732;2023-07-13T02:23:31;101367.44;;;14.95;90.49
43745;BME280;29359;53.048;8.732;2023-07-13T02:25:34;101355.03;;;14.96;91.10
43745;BME280;29359;53.048;8.732;2023-07-13T02:27:38;101352.38;;;14.96;91.20
43745;BME280;29359;53.048;8.732;2023-07-13T02:29:41;101347.03;;;14.96;91.41
43745;BME280;29359;53.048;8.732;2023-07-13T02:31:44;101355.09;;;14.94;91.80
43745;BME280;29359;53.048;8.732;2023-07-13T02:33:47;101359.53;;;14.94;92.10
43745;BME280;29359;53.048;8.732;2023-07-13T02:35:50;101352.59;;;14.90;92.30
43745;BME280;29359;53.048;8.732;2023-07-13T02:37:53;101354.38;;;14.89;91.73
43745;BME280;29359;53.048;8.732;2023-07-13T02:39:56;101357.09;;;14.88;91.49
43745;BME280;29359;53.048;8.732;2023-07-13T02:41:59;101356.31;;;14.86;91.92
43745;BME280;29359;53.048;8.732;2023-07-13T02:44:03;101347.53;;;14.84;92.05
43745;BME280;29359;53.048;8.732;2023-07-13T02:46:07;101350.19;;;14.84;92.10
43745;BME280;29359;53.048;8.732;2023-07-13T02:48:10;101335.16;;;14.83;92.07
43745;BME280;29359;53.048;8.732;2023-07-13T02:50:13;101344.91;;;14.82;92.21
43745;BME280;29359;53.048;8.732;2023-07-13T02:52:15;101345.78;;;14.83;92.17
43745;BME280;29359;53.048;8.732;2023-07-13T02:54:18;101347.63;;;14.81;91.90
43745;BME280;29359;53.048;8.732;2023-07-13T02:56:24;101352.03;;;14.82;91.69
43745;BME280;29359;53.048;8.732;2023-07-13T02:58:27;101354.63;;;14.83;91.73
43745;BME280;29359;53.048;8.732;2023-07-13T03:00:31;101352.84;;;14.84;91.82
43745;BME280;29359;53.048;8.732;2023-07-13T03:02:34;101353.66;;;14.86;91.82
43745;BME280;29359;53.048;8.732;2023-07-13T03:04:37;101354.44;;;14.88;91.86
43745;BME280;29359;53.048;8.732;2023-07-13T03:06:40;101364.97;;;14.91;91.62
43745;BME280;29359;53.048;8.732;2023-07-13T03:08:44;101352.47;;;14.93;91.38
43745;BME280;29359;53.048;8.732;2023-07-13T03:10:47;101360.41;;;14.94;91.52
43745;BME280;29359;53.048;8.732;2023-07-13T03:12:50;101357.69;;;14.96;91.77
43745;BME280;29359;53.048;8.732;2023-07-13T03:14:53;101353.19;;;14.98;91.86
43745;BME280;29359;53.048;8.732;2023-07-13T03:16:57;101354.97;;;14.97;92.09
43745;BME280;29359;53.048;8.732;2023-07-13T03:19:00;101359.31;;;15.00;92.13
43745;BME280;29359;53.048;8.732;2023-07-13T03:21:04;101355.72;;;15.01;91.70
43745;BME280;29359;53.048;8.732;2023-07-13T03:23:07;101360.91;;;15.04;92.14
43745;BME280;29359;53.048;8.732;2023-07-13T03:25:10;101359.06;;;15.06;91.82
43745;BME280;29359;53.048;8.732;2023-07-13T03:27:13;101353.63;;;15.09;91.22
43745;BME280;29359;53.048;8.732;2023-07-13T03:29:16;101363.34;;;15.10;91.32
43745;BME280;29359;53.048;8.732;2023-07-13T03:31:20;101365.00;;;15.13;91.46
43745;BME280;29359;53.048;8.732;2023-07-13T03:33:25;101364.03;;;15.15;91.07
43745;BME280;29359;53.048;8.732;2023-07-13T03:35:26;101363.94;;;15.18;90.94
43745;BME280;29359;53.048;8.732;2023-07-13T03:37:29;101367.41;;;15.20;90.20
43745;BME280;29359;53.048;8.732;2023-07-13T03:39:32;101373.59;;;15.21;90.56
43745;BME280;29359;53.048;8.732;2023-07-13T03:41:35;101368.22;;;15.22;90.40
43745;BME280;29359;53.048;8.732;2023-07-13T03:43:39;101376.06;;;15.25;90.69
43745;BME280;29359;53.048;8.732;2023-07-13T03:45:40;101366.28;;;15.26;90.67
43745;BME280;29359;53.048;8.732;2023-07-13T03:47:43;101375.94;;;15.28;90.78
43745;BME280;29359;53.048;8.732;2023-07-13T03:49:48;101369.63;;;15.31;90.60
43745;BME280;29359;53.048;8.732;2023-07-13T03:51:49;101373.97;;;15.33;90.57
43745;BME280;29359;53.048;8.732;2023-07-13T03:53:54;101376.63;;;15.33;90.39
43745;BME280;29359;53.048;8.732;2023-07-13T03:55:57;101390.75;;;15.35;90.21
43745;BME280;29359;53.048;8.732;2023-07-13T03:58:00;101388.88;;;15.37;90.33
43745;BME280;29359;53.048;8.732;2023-07-13T04:00:04;101393.22;;;15.40;90.12
43745;BME280;29359;53.048;8.732;2023-07-13T04:02:07;101387.84;;;15.42;89.96
43745;BME280;29359;53.048;8.732;2023-07-13T04:04:09;101389.56;;;15.43;89.49
43745;BME280;29359;53.048;8.732;2023-07-13T04:06:16;101383.25;;;15.45;89.40
43745;BME280;29359;53.048;8.732;2023-07-13T04:08:22;101392.97;;;15.46;89.19
43745;BME280;29359;53.048;8.732;2023-07-13T04:10:25;101384.94;;;15.48;89.27
43745;BME280;29359;53.048;8.732;2023-07-13T04:12:27;101387.59;;;15.48;89.16
43745;BME280;29359;53.048;8.732;2023-07-13T04:14:31;101388.34;;;15.51;89.17
43745;BME280;29359;53.048;8.732;2023-07-13T04:16:34;101386.41;;;15.55;89.01
43745;BME280;29359;53.048;8.732;2023-07-13T04:18:37;101383.69;;;15.56;88.75
43745;BME280;29359;53.048;8.732;2023-07-13T04:20:40;101387.13;;;15.60;88.32
43745;BME280;29359;53.048;8.732;2023-07-13T04:22:44;101376.38;;;15.63;88.09
43745;BME280;29359;53.048;8.732;2023-07-13T04:24:47;101380.72;;;15.65;88.04
43745;BME280;29359;53.048;8.732;2023-07-13T04:26:50;101383.31;;;15.67;88.01
43745;BME280;29359;53.048;8.732;2023-07-13T04:28:53;101385.91;;;15.68;87.89
43745;BME280;29359;53.048;8.732;2023-07-13T04:30:55;101383.06;;;15.73;87.84
43745;BME280;29359;53.048;8.732;2023-07-13T04:32:57;101387.53;;;15.73;87.52
43745;BME280;29359;53.048;8.732;2023-07-13T04:35:00;101383.00;;;15.75;87.52
43745;BME280;29359;53.048;8.732;2023-07-13T04:37:04;101388.19;;;15.78;87.34
43745;BME280;29359;53.048;8.732;2023-07-13T04:39:08;101387.22;;;15.80;87.28
43745;BME280;29359;53.048;8.732;2023-07-13T04:41:14;101382.63;;;15.84;87.22
43745;BME280;29359;53.048;8.732;2023-07-13T04:43:16;101388.69;;;15.87;87.26
43745;BME280;29359;53.048;8.732;2023-07-13T04:45:19;101390.34;;;15.90;87.17
43745;BME280;29359;53.048;8.732;2023-07-13T04:47:22;101391.09;;;15.93;87.31
43745;BME280;29359;53.048;8.732;2023-07-13T04:49:24;101394.56;;;15.95;87.38
43745;BME280;29359;53.048;8.732;2023-07-13T04:51:27;101396.16;;;15.99;87.37
43745;BME280;29359;53.048;8.732;2023-07-13T04:53:31;101391.63;;;16.01;87.35
43745;BME280;29359;53.048;8.732;2023-07-13T04:55:35;101392.41;;;16.05;87.38
43745;BME280;29359;53.048;8.732;2023-07-13T04:57:38;101391.47;;;16.06;87.41
43745;BME280;29359;53.048;8.732;2023-07-13T04:59:41;101394.13;;;16.06;87.05
43745;BME280;29359;53.048;8.732;2023-07-13T05:01:44;101386.09;;;16.08;86.93
43745;BME280;29359;53.048;8.732;2023-07-13T05:03:47;101388.63;;;16.11;86.77
43745;BME280;29359;53.048;8.732;2023-07-13T05:05:57;101392.88;;;16.15;86.79
43745;BME280;29359;53.048;8.732;2023-07-13T05:08:00;101399.00;;;16.17;86.68
43745;BME280;29359;53.048;8.732;2023-07-13T05:10:04;101404.19;;;16.20;86.72
43745;BME280;29359;53.048;8.732;2023-07-13T05:12:09;101406.00;;;16.19;86.72
43745;BME280;29359;53.048;8.732;2023-07-13T05:14:12;101407.78;;;16.19;86.55
43745;BME280;29359;53.048;8.732;2023-07-13T05:16:15;101404.34;;;16.17;86.63
43745;BME280;29359;53.048;8.732;2023-07-13T05:18:18;101415.00;;;16.17;86.83
43745;BME280;29359;53.048;8.732;2023-07-13T05:20:20;101415.13;;;16.14;87.18
43745;BME280;29359;53.048;8.732;2023-07-13T05:22:23;101417.66;;;16.17;87.08
43745;BME280;29359;53.048;8.732;2023-07-13T05:24:25;101420.31;;;16.17;86.64
43745;BME280;29359;53.048;8.732;2023-07-13T05:26:28;101426.44;;;16.19;86.66
43745;BME280;29359;53.048;8.732;2023-07-13T05:28:32;101428.97;;;16.22;86.85
43745;BME280;29359;53.048;8.732;2023-07-13T05:30:35;101431.50;;;16.25;86.88
43745;BME280;29359;53.048;8.732;2023-07-13T05:32:38;101432.44;;;16.24;87.02
43745;BME280;29359;53.048;8.732;2023-07-13T05:34:40;101436.97;;;16.22;86.96
43745;BME280;29359;53.048;8.732;2023-07-13T05:36:43;101426.31;;;16.22;86.67
43745;BME280;29359;53.048;8.732;2023-07-13T05:38:46;101433.50;;;16.20;87.35
43745;BME280;29359;53.048;8.732;2023-07-13T05:40:49;101429.19;;;16.17;87.48
43745;BME280;29359;53.048;8.732;2023-07-13T05:42:53;101432.63;;;16.19;87.72
43745;BME280;29359;53.048;8.732;2023-07-13T05:44:57;101439.69;;;16.20;87.79
43745;BME280;29359;53.048;8.732;2023-07-13T05:47:00;101442.91;;;16.28;87.83
43745;BME280;29359;53.048;8.732;2023-07-13T05:49:02;101442.44;;;16.39;87.56
43745;BME280;29359;53.048;8.732;2023-07-13T05:51:05;101440.38;;;16.46;87.34
43745;BME280;29359;53.048;8.732;2023-07-13T05:53:08;101442.75;;;16.53;87.25
43745;BME280;29359;53.048;8.732;2023-07-13T05:55:11;101443.28;;;16.61;87.01
43745;BME280;29359;53.048;8.732;2023-07-13T05:57:14;101446.50;;;16.70;86.52
43745;BME280;29359;53.048;8.732;2023-07-13T05:59:17;101452.63;;;16.72;86.04
43745;BME280;29359;53.048;8.732;2023-07-13T06:01:22;101440.91;;;16.76;85.76
43745;BME280;29359;53.048;8.732;2023-07-13T06:03:25;101444.09;;;16.84;85.48
43745;BME280;29359;53.048;8.732;2023-07-13T06:05:28;101456.28;;;16.89;85.36
43745;BME280;29359;53.048;8.732;2023-07-13T06:07:30;101448.34;;;16.88;84.53
43745;BME280;29359;53.048;8.732;2023-07-13T06:09:32;101449.03;;;16.93;84.96
43745;BME280;29359;53.048;8.732;2023-07-13T06:11:35;101454.81;;;17.03;85.24
43745;BME280;29359;53.048;8.732;2023-07-13T06:13:38;101459.75;;;17.12;85.15
43745;BME280;29359;53.048;8.732;2023-07-13T06:15:41;101453.13;;;17.20;84.17
43745;BME280;29359;53.048;8.732;2023-07-13T06:17:45;101455.13;;;17.34;83.18
43745;BME280;29359;53.048;8.732;2023-07-13T06:19:48;101462.53;;;17.48;83.32
43745;BME280;29359;53.048;8.732;2023-07-13T06:21:51;101463.69;;;17.61;82.82
43745;BME280;29359;53.048;8.732;2023-07-13T06:23:57;101464.47;;;17.63;82.05
43745;BME280;29359;53.048;8.732;2023-07-13T06:26:00;101460.94;;;17.63;82.13
43745;BME280;29359;53.048;8.732;2023-07-13T06:28:03;101476.25;;;17.59;81.58
43745;BME280;29359;53.048;8.732;2023-07-13T06:30:06;101478.19;;;17.55;81.82
43745;BME280;29359;53.048;8.732;2023-07-13T06:32:09;101475.22;;;17.43;81.39
43745;BME280;29359;53.048;8.732;2023-07-13T06:34:13;101472.91;;;17.35;82.02
43745;BME280;29359;53.048;8.732;2023-07-13T06:36:16;101472.91;;;17.35;82.24
43745;BME280;29359;53.048;8.732;2023-07-13T06:38:19;101469.97;;;17.41;82.84
43745;BME280;29359;53.048;8.732;2023-07-13T06:40:22;101469.47;;;17.52;83.10
43745;BME280;29359;53.048;8.732;2023-07-13T06:42:25;101473.56;;;17.59;82.70
43745;BME280;29359;53.048;8.732;2023-07-13T06:44:27;101470.50;;;17.68;82.57
43745;BME280;29359;53.048;8.732;2023-07-13T06:46:30;101465.63;;;17.76;81.54
43745;BME280;29359;53.048;8.732;2023-07-13T06:48:33;101469.00;;;17.81;81.26
43745;BME280;29359;53.048;8.732;2023-07-13T06:50:37;101471.59;;;17.83;80.96
43745;BME280;29359;53.048;8.732;2023-07-13T06:52:39;101464.28;;;17.86;80.39
43745;BME280;29359;53.048;8.732;2023-07-13T06:54:42;101468.31;;;17.95;80.76
43745;BME280;29359;53.048;8.732;2023-07-13T06:56:45;101471.00;;;18.12;81.14
43745;BME280;29359;53.048;8.732;2023-07-13T06:58:48;101471.44;;;18.22;79.65
43745;BME280;29359;53.048;8.732;2023-07-13T07:00:52;101470.16;;;18.12;78.84
43745;BME280;29359;53.048;8.732;2023-07-13T07:02:55;101488.38;;;18.04;79.57
43745;BME280;29359;53.048;8.732;2023-07-13T07:04:58;101486.56;;;18.04;80.02
43745;BME280;29359;53.048;8.732;2023-07-13T07:07:02;101478.31;;;18.09;80.26
43745;BME280;29359;53.048;8.732;2023-07-13T07:09:05;101485.31;;;18.11;80.27
43745;BME280;29359;53.048;8.732;2023-07-13T07:11:11;101485.88;;;18.18;80.22
43745;BME280;29359;53.048;8.732;2023-07-13T07:13:14;101477.66;;;18.23;80.15
43745;BME280;29359;53.048;8.732;2023-07-13T07:15:17;101481.69;;;18.31;80.07
43745;BME280;29359;53.048;8.732;2023-07-13T07:17:20;101483.19;;;18.37;79.74
43745;BME280;29359;53.048;8.732;2023-07-13T07:19:25;101482.16;;;18.39;78.79
43745;BME280;29359;53.048;8.732;2023-07-13T07:21:28;101490.97;;;18.41;78.21
43745;BME280;29359;53.048;8.732;2023-07-13T07:23:34;101483.56;;;18.46;78.66
43745;BME280;29359;53.048;8.732;2023-07-13T07:25:36;101486.72;;;18.55;78.70
43745;BME280;29359;53.048;8.732;2023-07-13T07:27:44;101486.84;;;18.70;79.24
43745;BME280;29359;53.048;8.732;2023-07-13T07:29:50;101481.81;;;18.81;78.55
43745;BME280;29359;53.048;8.732;2023-07-13T07:32:05;101484.16;;;18.88;78.22
43745;BME280;29359;53.048;8.732;2023-07-13T07:34:19;101477.13;;;19.02;78.42
43745;BME280;29359;53.048;8.732;2023-07-13T07:36:21;101478.22;;;19.16;77.41
43745;BME280;29359;53.048;8.732;2023-07-13T07:38:27;101487.75;;;19.21;76.42
43745;BME280;29359;53.048;8.732;2023-07-13T07:40:31;101481.16;;;19.11;75.42
43745;BME280;29359;53.048;8.732;2023-07-13T07:42:37;101478.25;;;18.98;75.34
43745;BME280;29359;53.048;8.732;2023-07-13T07:44:40;101485.97;;;18.87;75.40
43745;BME280;29359;53.048;8.732;2023-07-13T07:46:44;101483.38;;;18.86;76.11
43745;BME280;29359;53.048;8.732;2023-07-13T07:48:46;101486.06;;;18.86;75.41
43745;BME280;29359;53.048;8.732;2023-07-13T07:50:49;101498.31;;;18.90;75.62
43745;BME280;29359;53.048;8.732;2023-07-13T07:52:52;101484.53;;;18.97;75.78
43745;BME280;29359;53.048;8.732;2023-07-13T07:54:55;101483.84;;;19.11;76.55
43745;BME280;29359;53.048;8.732;2023-07-13T07:57:19;101484.19;;;19.21;75.48
43745;BME280;29359;53.048;8.732;2023-07-13T07:59:25;101487.06;;;19.33;74.76
43745;BME280;29359;53.048;8.732;2023-07-13T08:01:30;101490.63;;;19.34;74.46
43745;BME280;29359;53.048;8.732;2023-07-13T08:03:36;101486.81;;;19.38;74.67
43745;BME280;29359;53.048;8.732;2023-07-13T08:05:41;101489.59;;;19.36;74.19
43745;BME280;29359;53.048;8.732;2023-07-13T08:07:56;101493.22;;;19.35;74.69
43745;BME280;29359;53.048;8.732;2023-07-13T08:09:59;101488.56;;;19.39;74.49
43745;BME280;29359;53.048;8.732;2023-07-13T08:12:02;101491.66;;;19.47;73.13
43745;BME280;29359;53.048;8.732;2023-07-13T08:14:10;58104.44;;;-141.27;100.00
43745;BME280;29359;53.048;8.732;2023-07-13T08:16:13;58104.44;;;-141.27;100.00
43745;BME280;29359;53.048;8.732;2023-07-13T08:18:16;58104.44;;;-141.27;100.00
43745;BME280;29359;53.048;8.732;2023-07-13T08:20:19;58104.44;;;-141.27;100.00
43745;BME280;29359;53.048;8.732;2023-07-13T08:22:22;58104.44;;;-141.27;100.00
43745;BME280;29359;53.048;8.732;2023-07-13T08:24:24;58104.44;;;-141.27;100.00
43745;BME280;29359;53.048;8.732;2023-07-13T08:26:27;58104.44;;;-141.27;100.00
43745;BME280;29359;53.048;8.732;2023-07-13T08:28:31;58104.44;;;-141.27;100.00
43745;BME280;29359;53.048;8.732;2023-07-13T08:30:36;58104.44;;;-141.27;100.00
43745;BME280;29359;53.048;8.732;2023-07-13T08:32:39;58104.44;;;-141.27;100.00
43745;BME280;29359;53.048;8.732;2023-07-13T08:34:41;58104.44;;;-141.27;100.00
43745;BME280;29359;53.048;8.732;2023-07-13T08:36:44;58104.44;;;-141.27;100.00
43745;BME280;29359;53.048;8.732;2023-07-13T08:38:47;58104.44;;;-141.27;100.00
43745;BME280;29359;53.048;8.732;2023-07-13T08:40:52;58104.44;;;-141.27;100.00
43745;BME280;29359;53.048;8.732;2023-07-13T08:42:58;58104.44;;;-141.27;100.00
43745;BME280;29359;53.048;8.732;2023-07-13T08:45:08;58104.44;;;-141.27;100.00
43745;BME280;29359;53.048;8.732;2023-07-13T08:47:17;58104.44;;;-141.27;100.00
43745;BME280;29359;53.048;8.732;2023-07-13T08:49:22;58104.44;;;-141.27;100.00
43745;BME280;29359;53.048;8.732;2023-07-13T08:51:36;58104.44;;;-141.27;100.00
43745;BME280;29359;53.048;8.732;2023-07-13T08:53:45;58104.44;;;-141.27;100.00
43745;BME280;29359;53.048;8.732;2023-07-13T08:55:48;58104.44;;;-141.27;100.00
43745;BME280;29359;53.048;8.732;2023-07-13T08:58:00;58104.44;;;-141.27;100.00
43745;BME280;29359;53.048;8.732;2023-07-13T09:00:07;58104.44;;;-141.27;100.00
43745;BME280;29359;53.048;8.732;2023-07-13T09:02:23;58104.44;;;-141.27;100.00
43745;BME280;29359;53.048;8.732;2023-07-13T09:04:30;58104.44;;;-141.27;100.00
43745;BME280;29359;53.048;8.732;2023-07-13T09:06:44;58104.44;;;-141.27;100.00
43745;BME280;29359;53.048;8.732;2023-07-13T09:08:58;58104.44;;;-141.27;100.00
43745;BME280;29359;53.048;8.732;2023-07-13T09:11:14;58104.44;;;-141.27;100.00
43745;BME280;29359;53.048;8.732;2023-07-13T09:13:27;58104.44;;;-141.27;100.00
43745;BME280;29359;53.048;8.732;2023-07-13T09:15:39;58104.44;;;-141.27;100.00
43745;BME280;29359;53.048;8.732;2023-07-13T09:17:49;58104.44;;;-141.27;100.00
43745;BME280;29359;53.048;8.732;2023-07-13T09:19:57;58104.44;;;-141.27;100.00
43745;BME280;29359;53.048;8.732;2023-07-13T09:22:10;58104.44;;;-141.27;100.00
43745;BME280;29359;53.048;8.732;2023-07-13T09:24:29;58104.44;;;-141.27;100.00
43745;BME280;29359;53.048;8.732;2023-07-13T09:26:36;58104.44;;;-141.27;100.00
43745;BME280;29359;53.048;8.732;2023-07-13T09:28:42;58104.44;;;-141.27;100.00
43745;BME280;29359;53.048;8.732;2023-07-13T09:30:51;58104.44;;;-141.27;100.00
43745;BME280;29359;53.048;8.732;2023-07-13T09:32:56;58104.44;;;-141.27;100.00
43745;BME280;29359;53.048;8.732;2023-07-13T09:35:00;58104.44;;;-141.27;100.00
43745;BME280;29359;53.048;8.732;2023-07-13T09:37:03;58104.44;;;-141.27;100.00
43745;BME280;29359;53.048;8.732;2023-07-13T09:39:14;58104.44;;;-141.27;100.00
43745;BME280;29359;53.048;8.732;2023-07-13T09:41:23;58104.44;;;-141.27;100.00
43745;BME280;29359;53.048;8.732;2023-07-13T09:43:29;58104.44;;;-141.27;100.00
43745;BME280;29359;53.048;8.732;2023-07-13T09:45:33;58104.44;;;-141.27;100.00
43745;BME280;29359;53.048;8.732;2023-07-13T09:47:39;58104.44;;;-141.27;100.00
43745;BME280;29359;53.048;8.732;2023-07-13T09:49:44;58104.44;;;-141.27;100.00
43745;BME280;29359;53.048;8.732;2023-07-13T09:51:47;58104.44;;;-141.27;100.00
43745;BME280;29359;53.048;8.732;2023-07-13T09:53:50;58104.44;;;-141.27;100.00
43745;BME280;29359;53.048;8.732;2023-07-13T09:55:53;58104.44;;;-141.27;100.00
43745;BME280;29359;53.048;8.732;2023-07-13T09:57:56;58104.44;;;-141.27;100.00
43745;BME280;29359;53.048;8.732;2023-07-13T09:59:58;58104.44;;;-141.27;100.00
43745;BME280;29359;53.048;8.732;2023-07-13T10:02:22;58104.44;;;-141.27;100.00
43745;BME280;29359;53.048;8.732;2023-07-13T10:04:30;58104.44;;;-141.27;100.00
43745;BME280;29359;53.048;8.732;2023-07-13T10:06:35;58104.44;;;-141.27;100.00
43745;BME280;29359;53.048;8.732;2023-07-13T10:08:38;58104.44;;;-141.27;100.00
43745;BME280;29359;53.048;8.732;2023-07-13T10:10:41;58104.44;;;-141.27;100.00
43745;BME280;29359;53.048;8.732;2023-07-13T10:12:43;58104.44;;;-141.27;100.00
43745;BME280;29359;53.048;8.732;2023-07-13T10:14:47;58104.44;;;-141.27;100.00
43745;BME280;29359;53.048;8.732;2023-07-13T10:16:55;58104.44;;;-141.27;100.00
43745;BME280;29359;53.048;8.732;2023-07-13T10:19:02;58104.44;;;-141.27;100.00
43745;BME280;29359;53.048;8.732;2023-07-13T10:21:13;58104.44;;;-141.27;100.00
43745;BME280;29359;53.048;8.732;2023-07-13T10:23:23;58104.44;;;-141.27;100.00
43745;BME280;29359;53.048;8.732;2023-07-13T10:25:32;58104.44;;;-141.27;100.00
43745;BME280;29359;53.048;8.732;2023-07-13T10:27:36;58104.44;;;-141.27;100.00
43745;BME280;29359;53.048;8.732;2023-07-13T10:29:43;58104.44;;;-141.27;100.00
43745;BME280;29359;53.048;8.732;2023-07-13T10:31:46;58104.44;;;-141.27;100.00
43745;BME280;29359;53.048;8.732;2023-07-13T10:33:49;58104.44;;;-141.27;100.00
43745;BME280;29359;53.048;8.732;2023-07-13T10:36:05;58104.44;;;-141.27;100.00
43745;BME280;29359;53.048;8.732;2023-07-13T10:38:16;58104.44;;;-141.27;100.00
43745;BME280;29359;53.048;8.732;2023-07-13T10:40:25;58104.44;;;-141.27;100.00
43745;BME280;29359;53.048;8.732;2023-07-13T10:42:33;58104.44;;;-141.27;100.00
43745;BME280;29359;53.048;8.732;2023-07-13T10:44:38;58104.44;;;-141.27;100.00
43745;BME280;29359;53.048;8.732;2023-07-13T10:46:41;58104.44;;;-141.27;100.00